Elgin, Illinois
Current Conditions -  °F | °C
As of 3:12 PM on Sunday 23 Nov 2014 (Local Time) from KDPA Reporting Station
Light Rain Light Rain  
Wind Chill: 51°   Ceiling: 900
Heat Index: 51°   Visibility: 5mi
Dew Point: 49°   Wind: 12mph
Humidity: 92%   Direction: 150°SSE
Pressure: 29.46"   Gusts: NA
Location:  42.04°N, 88.28°W
Report Text: KDPA 232112Z 15010KT 5SM -RA BR OVC009 11/09 A2946 RMK AO2 P0000 T01060094
Loading
Personal Weather Stations






























Interactive Weather Map New forecast layout! Learn more

10-Day Weather Forecast

Advertisements
Track Severe Weather on mobile